createdAt,value
2023-05-19T00:00:51.655Z,9.30
2023-05-19T00:03:21.911Z,9.98
2023-05-19T00:05:49.132Z,11.40
2023-05-19T00:08:19.430Z,10.48
2023-05-19T00:10:46.582Z,9.95
2023-05-19T00:13:13.294Z,9.43
2023-05-19T00:15:40.226Z,8.43
2023-05-19T00:18:09.128Z,9.05
2023-05-19T00:20:35.726Z,8.60
2023-05-19T00:23:02.324Z,9.15
2023-05-19T00:25:28.844Z,8.30
2023-05-19T00:27:56.035Z,8.75
2023-05-19T00:30:23.492Z,8.45
2023-05-19T00:32:50.293Z,8.02
2023-05-19T00:35:17.156Z,8.35
2023-05-19T00:37:43.907Z,7.17
2023-05-19T00:40:10.872Z,8.00
2023-05-19T00:42:37.484Z,7.40
2023-05-19T00:45:04.764Z,7.35
2023-05-19T00:47:31.315Z,7.63
2023-05-19T00:49:57.940Z,6.97
2023-05-19T00:52:25.232Z,6.88
2023-05-19T00:54:52.173Z,6.03
2023-05-19T00:57:18.980Z,6.10
2023-05-19T00:59:45.585Z,6.22
2023-05-19T01:02:13.426Z,5.83
2023-05-19T01:04:42.268Z,6.68
2023-05-19T01:07:09.278Z,6.10
2023-05-19T01:09:36.836Z,7.38
2023-05-19T01:12:05.241Z,6.22
2023-05-19T01:14:32.078Z,6.03
2023-05-19T01:16:58.943Z,6.75
2023-05-19T01:19:58.741Z,7.78
2023-05-19T01:22:31.167Z,12.68
2023-05-19T01:25:07.351Z,6.53
2023-05-19T01:27:37.010Z,8.10
2023-05-19T01:30:26.535Z,5.90
2023-05-19T01:32:55.817Z,6.47
2023-05-19T01:35:27.979Z,6.90
2023-05-19T01:37:56.259Z,7.07
2023-05-19T01:40:24.368Z,11.47
2023-05-19T01:42:52.861Z,8.70
2023-05-19T01:45:20.342Z,12.60
2023-05-19T01:47:50.301Z,9.10
2023-05-19T01:50:17.778Z,6.25
2023-05-19T01:52:45.654Z,13.07
2023-05-19T01:55:13.949Z,7.47
2023-05-19T01:57:41.061Z,6.35
2023-05-19T02:00:23.263Z,5.90
2023-05-19T02:03:19.295Z,6.15
2023-05-19T02:05:50.362Z,7.43
2023-05-19T02:08:21.342Z,6.15
2023-05-19T02:10:51.834Z,6.25
2023-05-19T02:13:21.767Z,6.57
2023-05-19T02:15:48.807Z,6.88
2023-05-19T02:18:17.926Z,6.33
2023-05-19T02:20:44.908Z,6.13
2023-05-19T02:23:12.103Z,6.10
2023-05-19T02:25:38.703Z,5.60
2023-05-19T02:28:06.842Z,6.13
2023-05-19T02:30:34.217Z,5.80
2023-05-19T02:33:01.259Z,6.93
2023-05-19T02:35:28.609Z,5.97
2023-05-19T02:37:56.539Z,6.85
2023-05-19T02:40:23.290Z,6.13
2023-05-19T02:42:50.434Z,8.93
2023-05-19T02:45:17.487Z,6.70
2023-05-19T02:47:44.259Z,5.93
2023-05-19T02:50:11.154Z,6.72
2023-05-19T02:52:37.862Z,7.18
2023-05-19T02:55:08.835Z,5.87
2023-05-19T02:57:35.727Z,6.18
2023-05-19T03:00:02.846Z,8.65
2023-05-19T03:02:29.923Z,6.97
2023-05-19T03:04:57.273Z,7.18
2023-05-19T03:07:25.592Z,5.90
2023-05-19T03:09:52.728Z,6.05
2023-05-19T03:12:19.540Z,8.90
2023-05-19T03:14:46.508Z,6.72
2023-05-19T03:17:13.421Z,6.55
2023-05-19T03:19:40.601Z,5.73
2023-05-19T03:22:07.298Z,6.80
2023-05-19T03:24:33.903Z,5.82
2023-05-19T03:27:00.870Z,6.75
2023-05-19T03:29:27.467Z,7.07
2023-05-19T03:31:54.227Z,6.13
2023-05-19T03:34:22.560Z,7.32
2023-05-19T03:36:50.668Z,6.68
2023-05-19T03:39:17.641Z,6.55
2023-05-19T03:41:44.389Z,6.53
2023-05-19T03:44:11.155Z,6.00
2023-05-19T03:46:37.871Z,6.32
2023-05-19T03:49:04.491Z,7.10
2023-05-19T03:51:31.278Z,6.32
2023-05-19T03:53:58.487Z,7.25
2023-05-19T03:56:27.660Z,6.10
2023-05-19T03:58:55.455Z,7.05
2023-05-19T04:01:23.477Z,6.38
2023-05-19T04:03:50.351Z,7.22
2023-05-19T04:06:17.811Z,6.68
2023-05-19T04:08:44.591Z,6.00
2023-05-19T04:11:11.347Z,6.55
2023-05-19T04:13:38.553Z,7.07
2023-05-19T04:16:05.749Z,6.43
2023-05-19T04:18:32.612Z,7.40
2023-05-19T04:20:59.543Z,6.53
2023-05-19T04:23:27.072Z,6.80
2023-05-19T04:25:57.534Z,6.80
2023-05-19T04:28:24.528Z,7.25
2023-05-19T04:30:51.881Z,7.57
2023-05-19T04:33:20.430Z,6.47
2023-05-19T04:35:47.339Z,6.85
2023-05-19T04:38:14.193Z,5.85
2023-05-19T04:40:42.541Z,6.53
2023-05-19T04:43:09.753Z,6.88
2023-05-19T04:45:37.924Z,6.70
2023-05-19T04:48:05.122Z,6.90
2023-05-19T04:50:33.068Z,6.57
2023-05-19T04:53:00.158Z,6.82
2023-05-19T04:55:27.278Z,7.72
2023-05-19T04:57:54.000Z,5.87
2023-05-19T05:00:21.544Z,7.22
2023-05-19T05:02:50.292Z,7.22
2023-05-19T05:05:17.441Z,7.50
2023-05-19T05:07:44.085Z,7.85
2023-05-19T05:10:11.517Z,6.30
2023-05-19T05:12:38.393Z,6.88
2023-05-19T05:15:07.349Z,7.50
2023-05-19T05:17:35.626Z,7.03
2023-05-19T05:20:03.805Z,6.95
2023-05-19T05:22:31.282Z,5.63
2023-05-19T05:24:58.721Z,6.65
2023-05-19T05:27:26.838Z,6.90
2023-05-19T05:29:56.003Z,7.03
2023-05-19T05:32:23.901Z,7.35
2023-05-19T05:34:51.545Z,7.13
2023-05-19T05:37:18.401Z,9.38
2023-05-19T05:39:45.982Z,7.95
2023-05-19T05:42:13.016Z,6.88
2023-05-19T05:44:39.636Z,7.38
2023-05-19T05:47:06.398Z,7.50
2023-05-19T05:49:33.212Z,7.60
2023-05-19T05:54:30.519Z,6.32
2023-05-19T05:56:58.501Z,6.47
2023-05-19T05:59:25.187Z,6.10
2023-05-19T06:01:51.854Z,5.68
2023-05-19T06:04:18.602Z,5.70
2023-05-19T06:06:45.842Z,6.50
2023-05-19T06:09:14.949Z,6.85
2023-05-19T06:11:41.801Z,6.37
2023-05-19T06:14:08.715Z,6.88
2023-05-19T06:16:35.878Z,6.55
2023-05-19T06:19:02.827Z,6.65
2023-05-19T06:21:29.825Z,7.72
2023-05-19T06:23:56.728Z,6.30
2023-05-19T06:26:23.245Z,6.93
2023-05-19T06:28:49.774Z,8.35
2023-05-19T06:31:16.580Z,8.07
2023-05-19T06:33:44.807Z,9.07
2023-05-19T06:36:12.574Z,9.17
2023-05-19T06:38:39.410Z,9.05
2023-05-19T06:41:06.165Z,9.82
2023-05-19T06:43:32.885Z,9.90
2023-05-19T06:46:01.696Z,10.18
2023-05-19T06:48:28.952Z,8.83
2023-05-19T06:50:56.454Z,10.55
2023-05-19T06:53:23.119Z,9.88
2023-05-19T06:55:59.249Z,10.48
2023-05-19T06:58:27.978Z,12.60
2023-05-19T07:00:54.681Z,11.80
2023-05-19T07:03:21.285Z,11.73
2023-05-19T07:05:48.108Z,15.60
2023-05-19T07:08:14.588Z,12.60
2023-05-19T07:10:41.239Z,12.15
2023-05-19T07:13:08.549Z,12.50
2023-05-19T07:15:35.124Z,11.98
2023-05-19T07:18:02.008Z,13.02
2023-05-19T07:20:28.908Z,10.85
2023-05-19T07:22:55.476Z,10.48
2023-05-19T07:25:22.098Z,11.07
2023-05-19T07:27:48.740Z,12.02
2023-05-19T07:30:15.610Z,10.52
2023-05-19T07:32:42.439Z,11.23
2023-05-19T07:35:09.046Z,11.48
2023-05-19T07:37:36.556Z,11.30
2023-05-19T07:40:03.250Z,11.52
2023-05-19T07:42:30.232Z,11.90
2023-05-19T07:44:56.922Z,12.43
2023-05-19T07:47:23.887Z,13.82
2023-05-19T07:49:51.898Z,11.77
2023-05-19T07:52:19.144Z,12.30
2023-05-19T07:54:46.138Z,13.75
2023-05-19T07:57:12.761Z,13.68
2023-05-19T07:59:39.319Z,14.18
2023-05-19T08:02:06.623Z,15.07
2023-05-19T08:04:33.584Z,15.15
2023-05-19T08:07:00.781Z,14.63
2023-05-19T08:09:27.463Z,15.43
2023-05-19T08:11:54.478Z,17.35
2023-05-19T08:14:23.000Z,15.90
2023-05-19T08:16:50.494Z,18.02
2023-05-19T08:19:17.378Z,14.52
2023-05-19T08:21:44.790Z,15.00
2023-05-19T08:24:11.997Z,14.10
2023-05-19T08:26:38.641Z,15.33
2023-05-19T08:29:05.453Z,15.15
2023-05-19T08:31:33.000Z,15.20
2023-05-19T08:34:00.306Z,15.52
2023-05-19T08:36:27.779Z,16.25
2023-05-19T08:38:54.318Z,16.50
2023-05-19T08:41:21.778Z,15.60
2023-05-19T08:43:48.237Z,14.98
2023-05-19T08:46:16.937Z,15.20
2023-05-19T08:48:44.678Z,16.15
2023-05-19T08:51:26.467Z,15.40
2023-05-19T08:53:55.313Z,16.13
2023-05-19T08:56:22.828Z,17.38
2023-05-19T08:58:50.439Z,15.45
2023-05-19T09:01:17.787Z,16.15
2023-05-19T09:03:45.461Z,16.37
2023-05-19T09:06:13.273Z,14.85
2023-05-19T09:08:40.545Z,15.65
2023-05-19T09:11:07.680Z,15.18
2023-05-19T09:13:34.905Z,16.15
2023-05-19T09:16:03.631Z,15.57
2023-05-19T09:18:30.806Z,16.15
2023-05-19T09:21:00.776Z,16.55
2023-05-19T09:23:29.961Z,15.38
2023-05-19T09:25:57.333Z,16.20
2023-05-19T09:28:24.764Z,16.73
2023-05-19T09:31:07.153Z,16.05
2023-05-19T09:33:35.151Z,14.82
2023-05-19T09:36:01.946Z,16.38
2023-05-19T09:38:28.478Z,16.42
2023-05-19T09:40:58.752Z,15.07
2023-05-19T09:43:33.661Z,15.32
2023-05-19T09:46:01.719Z,16.27
2023-05-19T09:48:28.824Z,15.57
2023-05-19T09:50:55.562Z,15.20
2023-05-19T09:53:22.534Z,15.53
2023-05-19T09:55:49.981Z,21.60
2023-05-19T09:58:19.199Z,18.55
2023-05-19T10:00:46.806Z,15.98
2023-05-19T10:03:13.651Z,15.50
2023-05-19T10:05:42.397Z,15.70
2023-05-19T10:08:10.361Z,14.82
2023-05-19T10:10:38.126Z,16.67
2023-05-19T10:13:06.175Z,14.50
2023-05-19T10:15:38.383Z,16.67
2023-05-19T10:18:11.093Z,14.63
2023-05-19T10:20:37.912Z,15.52
2023-05-19T10:23:05.338Z,16.65
2023-05-19T10:25:33.798Z,16.23
2023-05-19T10:28:11.615Z,20.08
2023-05-19T10:30:43.343Z,15.17
2023-05-19T10:33:14.857Z,16.60
2023-05-19T10:35:46.062Z,15.45
2023-05-19T10:38:22.814Z,16.48
2023-05-19T10:41:00.030Z,17.20
2023-05-19T10:43:45.859Z,14.77
2023-05-19T10:46:12.902Z,14.88
2023-05-19T10:48:43.990Z,16.13
2023-05-19T10:51:12.416Z,16.08
2023-05-19T10:53:46.300Z,17.63
2023-05-19T10:56:29.582Z,15.90
2023-05-19T10:58:57.274Z,15.93
2023-05-19T11:01:30.516Z,16.23
2023-05-19T11:03:57.568Z,16.50
2023-05-19T11:06:32.433Z,16.17
2023-05-19T11:09:16.015Z,15.10
2023-05-19T11:11:47.295Z,14.55
2023-05-19T11:14:14.656Z,15.75
2023-05-19T11:16:45.886Z,15.77
2023-05-19T11:19:32.500Z,16.95
2023-05-19T11:22:09.198Z,14.83
2023-05-19T11:24:36.999Z,15.05
2023-05-19T11:27:22.777Z,16.35
2023-05-19T11:29:49.418Z,14.98
2023-05-19T11:32:16.974Z,14.82
2023-05-19T11:34:48.401Z,16.93
2023-05-19T11:37:15.443Z,17.75
2023-05-19T11:39:42.288Z,15.38
2023-05-19T11:42:09.828Z,14.32
2023-05-19T11:44:36.600Z,16.48
2023-05-19T11:47:03.554Z,15.00
2023-05-19T11:49:30.169Z,17.27
2023-05-19T11:51:57.746Z,16.77
2023-05-19T11:54:29.919Z,15.95
2023-05-19T11:56:57.328Z,17.20
2023-05-19T11:59:32.755Z,15.20
2023-05-19T12:02:14.088Z,16.35
2023-05-19T12:04:41.067Z,16.02
2023-05-19T12:07:07.875Z,14.48
2023-05-19T12:09:34.624Z,15.75
2023-05-19T12:12:01.739Z,14.80
2023-05-19T12:14:29.813Z,16.90
2023-05-19T12:16:56.421Z,15.60
2023-05-19T12:19:23.985Z,14.93
2023-05-19T12:21:51.671Z,15.80
2023-05-19T12:24:19.111Z,14.57
2023-05-19T12:26:45.618Z,14.77
2023-05-19T12:29:13.344Z,14.90
2023-05-19T12:31:40.276Z,16.23
2023-05-19T12:34:06.926Z,14.65
2023-05-19T12:36:33.891Z,16.90
2023-05-19T12:39:01.041Z,15.80
2023-05-19T12:41:27.632Z,15.52
2023-05-19T12:43:55.087Z,14.93
2023-05-19T12:46:22.879Z,17.48
2023-05-19T12:48:49.813Z,14.57
2023-05-19T12:51:18.288Z,13.98
2023-05-19T12:53:46.012Z,15.82
2023-05-19T12:56:14.574Z,14.20
2023-05-19T12:58:44.113Z,16.17
2023-05-19T13:01:17.971Z,14.30
2023-05-19T13:03:45.011Z,15.80
2023-05-19T13:06:11.970Z,15.52
2023-05-19T13:08:41.133Z,15.48
2023-05-19T13:11:07.791Z,15.70
2023-05-19T13:13:34.621Z,17.90
2023-05-19T13:16:01.134Z,17.08
2023-05-19T13:18:27.792Z,18.13
2023-05-19T13:20:54.781Z,15.85
2023-05-19T13:23:21.828Z,19.05
2023-05-19T13:25:50.805Z,16.00
2023-05-19T13:28:17.665Z,16.20
2023-05-19T13:30:45.292Z,16.45
2023-05-19T13:33:12.583Z,15.63
2023-05-19T13:35:39.825Z,18.08
2023-05-19T13:38:07.137Z,16.33
2023-05-19T13:40:35.318Z,18.17
2023-05-19T13:43:03.705Z,16.58
2023-05-19T13:45:30.854Z,15.15
2023-05-19T13:47:57.705Z,17.70
2023-05-19T13:50:24.197Z,16.97
2023-05-19T13:52:51.044Z,14.68
2023-05-19T13:55:17.752Z,16.48
2023-05-19T13:57:45.053Z,16.33
2023-05-19T14:00:11.857Z,16.58
2023-05-19T14:02:38.619Z,17.73
2023-05-19T14:05:06.235Z,15.50
2023-05-19T14:07:35.850Z,16.63
2023-05-19T14:10:04.147Z,14.98
2023-05-19T14:12:40.403Z,15.90
2023-05-19T14:15:14.221Z,19.90
2023-05-19T14:17:41.632Z,14.85
2023-05-19T14:20:10.369Z,17.33
2023-05-19T14:22:37.397Z,15.48
2023-05-19T14:25:04.839Z,16.73
2023-05-19T14:27:32.314Z,18.57
2023-05-19T14:29:58.967Z,16.17
2023-05-19T14:32:27.324Z,15.32
2023-05-19T14:34:55.389Z,16.17
2023-05-19T14:37:21.883Z,16.63
2023-05-19T14:39:48.740Z,15.53
2023-05-19T14:42:15.504Z,15.35
2023-05-19T14:44:42.116Z,15.43
2023-05-19T14:47:11.350Z,15.25
2023-05-19T14:49:38.339Z,15.43
2023-05-19T14:52:06.058Z,14.77
2023-05-19T14:54:32.801Z,15.52
2023-05-19T14:56:59.610Z,14.95
2023-05-19T14:59:26.489Z,16.40
2023-05-19T15:01:53.086Z,18.67
2023-05-19T15:04:19.949Z,15.10
2023-05-19T15:06:52.318Z,14.93
2023-05-19T15:09:25.497Z,15.50
2023-05-19T15:11:52.049Z,14.45
2023-05-19T15:14:18.764Z,15.23
2023-05-19T15:16:45.646Z,15.50
2023-05-19T15:19:12.527Z,15.38
2023-05-19T15:21:40.250Z,16.15
2023-05-19T15:24:07.472Z,15.05
2023-05-19T15:26:34.057Z,16.08
2023-05-19T15:29:01.907Z,14.90
2023-05-19T15:31:28.534Z,16.13
2023-05-19T15:33:55.709Z,17.05
2023-05-19T15:36:22.407Z,14.35
2023-05-19T15:38:48.928Z,16.45
2023-05-19T15:41:15.778Z,14.10
2023-05-19T15:43:42.621Z,15.13
2023-05-19T15:46:09.431Z,16.17
2023-05-19T15:48:36.310Z,17.17
2023-05-19T15:51:03.002Z,15.85
2023-05-19T15:53:29.808Z,14.30
2023-05-19T15:55:57.735Z,14.88
2023-05-19T15:58:24.436Z,15.18
2023-05-19T16:00:51.264Z,15.73
2023-05-19T16:03:19.277Z,15.52
2023-05-19T16:05:46.314Z,15.03
2023-05-19T16:08:12.881Z,14.60
2023-05-19T16:10:39.475Z,14.65
2023-05-19T16:13:06.489Z,15.25
2023-05-19T16:15:33.678Z,14.88
2023-05-19T16:18:00.792Z,15.33
2023-05-19T16:20:29.726Z,14.98
2023-05-19T16:22:56.438Z,14.90
2023-05-19T16:25:24.272Z,15.07
2023-05-19T16:27:51.438Z,15.60
2023-05-19T16:30:17.980Z,14.60
2023-05-19T16:32:44.957Z,16.40
2023-05-19T16:35:11.729Z,13.57
2023-05-19T16:37:38.437Z,15.85
2023-05-19T16:40:05.310Z,14.05
2023-05-19T16:42:32.748Z,13.80
2023-05-19T16:44:59.572Z,14.95
2023-05-19T16:47:26.287Z,16.02
2023-05-19T16:49:52.866Z,15.85
2023-05-19T16:52:20.744Z,15.93
2023-05-19T16:54:47.300Z,16.60
2023-05-19T16:57:16.750Z,14.70
2023-05-19T16:59:43.460Z,15.05
2023-05-19T17:02:10.040Z,14.15
2023-05-19T17:04:37.078Z,15.70
2023-05-19T17:07:03.840Z,14.97
2023-05-19T17:09:30.624Z,15.98
2023-05-19T17:11:57.253Z,14.93
2023-05-19T17:14:25.532Z,13.43
2023-05-19T17:16:52.967Z,15.40
2023-05-19T17:19:19.640Z,14.23
2023-05-19T17:21:46.566Z,14.10
2023-05-19T17:24:13.205Z,14.05
2023-05-19T17:26:39.902Z,17.02
2023-05-19T17:29:07.229Z,14.80
2023-05-19T17:31:33.776Z,13.93
2023-05-19T17:34:00.525Z,15.38
2023-05-19T17:36:26.983Z,14.90
2023-05-19T17:38:53.594Z,14.57
2023-05-19T17:41:20.060Z,13.00
2023-05-19T17:43:46.694Z,13.87
2023-05-19T17:46:15.198Z,14.25
2023-05-19T17:48:43.690Z,13.77
2023-05-19T17:51:10.266Z,12.93
2023-05-19T17:53:37.193Z,13.52
2023-05-19T17:56:04.589Z,14.10
2023-05-19T17:58:31.712Z,14.40
2023-05-19T18:00:58.343Z,15.30
2023-05-19T18:03:25.172Z,14.38
2023-05-19T18:05:52.198Z,13.10
2023-05-19T18:08:19.060Z,14.20
2023-05-19T18:10:51.924Z,13.30
2023-05-19T18:13:18.563Z,13.85
2023-05-19T18:15:45.139Z,14.43
2023-05-19T18:18:11.784Z,15.02
2023-05-19T18:20:39.455Z,14.50
2023-05-19T18:23:06.606Z,14.73
2023-05-19T18:25:33.279Z,13.45
2023-05-19T18:28:00.293Z,13.45
2023-05-19T18:30:27.067Z,14.95
2023-05-19T18:32:54.073Z,13.00
2023-05-19T18:35:23.757Z,13.68
2023-05-19T18:37:50.714Z,13.20
2023-05-19T18:40:17.317Z,16.80
2023-05-19T18:42:44.256Z,13.68
2023-05-19T18:45:11.524Z,13.07
2023-05-19T18:47:38.111Z,15.18
2023-05-19T18:50:04.844Z,13.18
2023-05-19T18:52:31.572Z,12.45
2023-05-19T18:55:00.613Z,12.10
2023-05-19T18:57:27.712Z,12.43
2023-05-19T18:59:54.434Z,12.40
2023-05-19T19:02:21.114Z,12.63
2023-05-19T19:04:47.763Z,13.20
2023-05-19T19:07:14.828Z,14.25
2023-05-19T19:09:43.878Z,13.20
2023-05-19T19:12:11.267Z,13.18
2023-05-19T19:14:38.706Z,13.85
2023-05-19T19:17:05.425Z,12.75
2023-05-19T19:19:32.482Z,11.88
2023-05-19T19:21:59.233Z,13.07
2023-05-19T19:24:26.647Z,12.40
2023-05-19T19:26:53.402Z,12.18
2023-05-19T19:29:22.244Z,11.48
2023-05-19T19:31:49.203Z,12.68
2023-05-19T19:34:15.998Z,11.77
2023-05-19T19:36:42.803Z,11.45
2023-05-19T19:39:09.788Z,11.85
2023-05-19T19:41:36.948Z,13.32
2023-05-19T19:44:03.874Z,11.88
2023-05-19T19:46:31.066Z,11.33
2023-05-19T19:49:01.041Z,11.30
2023-05-19T19:51:28.511Z,11.32
2023-05-19T19:53:55.453Z,11.05
2023-05-19T19:56:24.934Z,36.28
2023-05-19T19:58:51.893Z,10.90
2023-05-19T20:01:20.791Z,10.15
2023-05-19T20:03:48.158Z,16.90
2023-05-19T20:06:14.841Z,11.10
2023-05-19T20:08:41.666Z,22.23
2023-05-19T20:11:08.468Z,12.30
2023-05-19T20:13:34.991Z,8.60
2023-05-19T20:16:01.561Z,8.93
2023-05-19T20:18:30.175Z,8.27
2023-05-19T20:20:57.240Z,8.60
2023-05-19T20:23:23.726Z,8.97
2023-05-19T20:26:09.381Z,13.50
2023-05-19T20:28:37.707Z,9.93
2023-05-19T20:31:04.751Z,10.23
2023-05-19T20:33:32.265Z,7.72
2023-05-19T20:35:58.977Z,7.03
2023-05-19T20:38:25.842Z,7.78
2023-05-19T20:40:54.217Z,8.38
2023-05-19T20:43:20.941Z,8.43
2023-05-19T20:45:47.905Z,9.95
2023-05-19T20:48:16.102Z,7.27
2023-05-19T20:50:42.803Z,8.43
2023-05-19T20:53:09.501Z,7.90
2023-05-19T20:55:37.120Z,8.73
2023-05-19T20:58:03.730Z,8.48
2023-05-19T21:00:30.777Z,8.43
2023-05-19T21:02:57.900Z,9.00
2023-05-19T21:05:24.671Z,8.50
2023-05-19T21:07:51.572Z,8.35
2023-05-19T21:10:18.323Z,10.77
2023-05-19T21:12:45.024Z,8.93
2023-05-19T21:15:15.161Z,8.82
2023-05-19T21:17:42.058Z,8.57
2023-05-19T21:20:09.364Z,8.00
2023-05-19T21:22:36.150Z,8.93
2023-05-19T21:25:02.744Z,9.17
2023-05-19T21:27:30.304Z,8.80
2023-05-19T21:29:57.226Z,8.57
2023-05-19T21:32:23.942Z,9.50
2023-05-19T21:34:51.358Z,10.60
2023-05-19T21:37:18.376Z,9.40
2023-05-19T21:39:45.109Z,8.73
2023-05-19T21:42:11.832Z,10.38
2023-05-19T21:44:38.770Z,8.70
2023-05-19T21:47:05.209Z,9.77
2023-05-19T21:49:32.171Z,10.10
2023-05-19T21:51:58.796Z,8.27
2023-05-19T21:54:25.473Z,9.38
2023-05-19T21:56:52.055Z,9.30
2023-05-19T21:59:19.564Z,10.00
2023-05-19T22:01:47.376Z,8.70
2023-05-19T22:04:16.607Z,8.48
2023-05-19T22:06:45.002Z,8.52
2023-05-19T22:09:12.260Z,8.30
2023-05-19T22:11:40.006Z,8.43
2023-05-19T22:14:07.067Z,8.70
2023-05-19T22:16:34.555Z,9.68
2023-05-19T22:19:04.293Z,8.68
2023-05-19T22:21:32.090Z,8.30
2023-05-19T22:23:58.786Z,8.02
2023-05-19T22:26:25.438Z,7.50
2023-05-19T22:28:52.009Z,15.95
2023-05-19T22:31:18.638Z,7.72
2023-05-19T22:33:45.945Z,9.13
2023-05-19T22:36:13.556Z,8.45
2023-05-19T22:38:40.213Z,7.47
2023-05-19T22:41:06.867Z,8.10
2023-05-19T22:43:33.836Z,8.07
2023-05-19T22:46:00.405Z,6.80
2023-05-19T22:48:27.458Z,6.68
2023-05-19T22:50:54.066Z,6.40
2023-05-19T22:53:21.716Z,6.80
2023-05-19T22:55:49.007Z,9.20
2023-05-19T22:58:15.640Z,7.70
2023-05-19T23:00:42.418Z,7.28
2023-05-19T23:03:09.460Z,6.97
2023-05-19T23:05:36.932Z,8.02
2023-05-19T23:08:03.435Z,11.98
2023-05-19T23:10:29.950Z,6.80
2023-05-19T23:12:57.141Z,6.15
2023-05-19T23:15:24.588Z,5.27
2023-05-19T23:17:51.696Z,5.72
2023-05-19T23:20:18.715Z,13.93
2023-05-19T23:22:45.301Z,12.90
2023-05-19T23:25:12.346Z,6.20
2023-05-19T23:27:39.189Z,5.33
2023-05-19T23:30:06.179Z,6.00
2023-05-19T23:32:32.791Z,4.90
2023-05-19T23:35:08.951Z,7.60
2023-05-19T23:37:35.765Z,4.75
2023-05-19T23:40:02.244Z,4.70
2023-05-19T23:42:28.870Z,5.07
2023-05-19T23:44:55.777Z,5.47
2023-05-19T23:47:22.466Z,4.55
2023-05-19T23:49:48.966Z,4.78
2023-05-19T23:52:16.033Z,5.23
2023-05-19T23:54:42.566Z,5.43
2023-05-19T23:57:09.305Z,5.25
2023-05-19T23:59:36.278Z,5.03
